Time;durP1;ratioP1;P1;durP2;ratioP2;P2;SDS_P1;SDS_P2;PMS_P1;PMS_P2;Temp;Humidity;BMP_temperature;BMP_pressure;BME280_temperature;BME280_humidity;BME280_pressure;Samples;Min_cycle;Max_cycle;Signal;HPM_P1;HPM_P2
2023/11/23 00:00:15;;;;;;;1.70;1.40;;;;;;;9.39;76.91;93718.00;511536;28;1855;-69
2023/11/23 00:00:31;;;;;;;1.77;1.60;;;;;;;9.41;76.77;93715.47;513334;28;1641;-69
2023/11/23 00:00:46;;;;;;;2.20;1.83;;;;;;;9.40;76.44;93716.72;513102;28;1993;-69
2023/11/23 00:01:04;;;;;;;2.30;1.87;;;;;;;9.40;76.64;93719.47;512409;28;1953;-69
2023/11/23 00:01:20;;;;;;;1.90;1.70;;;;;;;9.34;76.66;93724.38;513021;28;1565;-69
2023/11/23 00:01:35;;;;;;;1.43;1.33;;;;;;;9.35;76.74;93728.63;512191;28;1594;-69
2023/11/23 00:01:50;;;;;;;1.30;1.20;;;;;;;9.34;76.69;93727.13;512551;28;2103;-69
2023/11/23 00:02:06;;;;;;;1.67;1.58;;;;;;;9.35;76.76;93727.88;512304;28;1747;-69
2023/11/23 00:02:22;;;;;;;1.73;1.63;;;;;;;9.36;76.74;93729.34;512970;28;1593;-69
2023/11/23 00:02:40;;;;;;;1.53;1.43;;;;;;;9.35;76.85;93722.38;512647;28;3030;-69
2023/11/23 00:02:55;;;;;;;1.30;1.20;;;;;;;9.37;76.77;93728.09;513598;28;1610;-69
2023/11/23 00:03:11;;;;;;;1.27;1.17;;;;;;;9.35;76.96;93720.34;513193;28;3125;-69
2023/11/23 00:03:27;;;;;;;1.20;1.10;;;;;;;9.35;76.66;93725.13;513447;28;2016;-69
2023/11/23 00:03:42;;;;;;;1.20;1.00;;;;;;;9.34;76.70;93729.13;513632;28;1678;-69
2023/11/23 00:03:58;;;;;;;1.48;1.17;;;;;;;9.33;77.10;93720.16;512808;28;1155;-68
2023/11/23 00:04:13;;;;;;;1.27;1.10;;;;;;;9.34;77.04;93726.38;513480;28;3195;-68
2023/11/23 00:04:28;;;;;;;1.00;1.00;;;;;;;9.33;76.74;93720.16;513002;28;1698;-69
2023/11/23 00:04:44;;;;;;;1.05;1.00;;;;;;;9.33;77.11;93728.41;513423;28;1669;-69
2023/11/23 00:04:59;;;;;;;1.10;1.00;;;;;;;9.33;77.14;93719.41;513787;28;1934;-69
2023/11/23 00:05:16;;;;;;;1.17;1.08;;;;;;;9.33;77.01;93728.41;513191;28;2467;-68
2023/11/23 00:05:32;;;;;;;1.20;1.10;;;;;;;9.29;77.19;93730.00;512591;28;1717;-69
2023/11/23 00:05:47;;;;;;;1.20;1.10;;;;;;;9.26;77.01;93717.28;512665;28;3104;-69
2023/11/23 00:06:03;;;;;;;1.20;1.00;;;;;;;9.31;77.32;93728.22;513895;28;2404;-69
2023/11/23 00:06:18;;;;;;;1.00;0.90;;;;;;;9.31;77.18;93727.47;512192;28;1903;-70
2023/11/23 00:06:34;;;;;;;1.00;1.00;;;;;;;9.32;76.89;93721.41;512585;28;1996;-70
2023/11/23 00:06:49;;;;;;;1.40;1.13;;;;;;;9.33;76.86;93725.66;510642;28;3079;-70
2023/11/23 00:07:05;;;;;;;1.47;1.10;;;;;;;9.34;77.03;93726.38;512655;28;2033;-69
2023/11/23 00:07:20;;;;;;;1.20;1.15;;;;;;;9.34;77.08;93726.38;510871;28;2179;-69
2023/11/23 00:07:37;;;;;;;1.10;1.10;;;;;;;9.33;77.08;93728.41;513165;28;1686;-69
2023/11/23 00:07:53;;;;;;;1.10;1.10;;;;;;;9.33;77.28;93728.41;512761;28;2978;-69
2023/11/23 00:08:08;;;;;;;1.07;1.03;;;;;;;9.34;77.43;93726.38;512181;28;2041;-69
2023/11/23 00:08:24;;;;;;;0.97;0.97;;;;;;;9.35;76.96;93725.13;513740;28;2228;-69
2023/11/23 00:08:41;;;;;;;1.02;0.88;;;;;;;9.34;77.16;93723.63;512963;28;1719;-69
2023/11/23 00:08:57;;;;;;;1.50;0.90;;;;;;;9.34;76.95;93729.88;512644;28;1739;-69
2023/11/23 00:09:12;;;;;;;1.17;1.00;;;;;;;9.34;76.93;93726.38;512892;28;2143;-69
2023/11/23 00:09:28;;;;;;;1.50;1.00;;;;;;;9.34;76.77;93727.13;513067;28;1958;-69
2023/11/23 00:09:44;;;;;;;1.33;0.98;;;;;;;9.35;76.70;93727.88;513043;28;1860;-70
2023/11/23 00:09:59;;;;;;;1.02;1.02;;;;;;;9.34;77.19;93727.13;513202;28;3025;-70
2023/11/23 00:10:15;;;;;;;1.00;1.00;;;;;;;9.34;77.09;93721.63;512614;28;1629;-70
2023/11/23 00:10:30;;;;;;;1.10;1.00;;;;;;;9.35;77.00;93722.38;513181;28;3317;-69
2023/11/23 00:10:46;;;;;;;1.20;1.00;;;;;;;9.34;76.86;93720.88;511257;28;2943;-69
2023/11/23 00:11:01;;;;;;;1.52;1.15;;;;;;;9.36;76.78;93723.84;512977;28;3589;-70
2023/11/23 00:11:17;;;;;;;1.33;1.10;;;;;;;9.35;76.72;93722.38;512755;28;1932;-69
2023/11/23 00:11:32;;;;;;;1.10;1.00;;;;;;;9.35;76.92;93717.59;512313;28;2496;-69
2023/11/23 00:11:48;;;;;;;1.10;1.00;;;;;;;9.35;76.86;93719.59;512443;28;1795;-70
2023/11/23 00:12:04;;;;;;;1.00;1.00;;;;;;;9.36;76.80;93727.34;511880;28;1902;-70
2023/11/23 00:12:19;;;;;;;1.15;1.13;;;;;;;9.35;77.15;93725.88;513730;28;1722;-70
2023/11/23 00:12:35;;;;;;;1.00;1.00;;;;;;;9.35;77.12;93727.88;512986;28;2420;-69
2023/11/23 00:12:50;;;;;;;1.15;1.05;;;;;;;9.35;77.05;93725.13;514094;28;1607;-69
2023/11/23 00:13:06;;;;;;;1.40;1.30;;;;;;;9.34;77.05;93723.63;513348;28;2070;-70
2023/11/23 00:13:21;;;;;;;1.40;1.30;;;;;;;9.33;76.83;93725.66;513058;28;2255;-70
2023/11/23 00:13:36;;;;;;;1.45;1.35;;;;;;;9.32;77.26;93728.94;512932;28;1840;-69
2023/11/23 00:13:52;;;;;;;1.50;1.40;;;;;;;9.31;77.05;93727.47;513470;28;1713;-69
2023/11/23 00:14:07;;;;;;;1.40;1.30;;;;;;;9.27;77.29;93727.78;510649;28;2264;-69
2023/11/23 00:14:23;;;;;;;1.30;1.20;;;;;;;9.27;77.20;93724.31;513010;28;1796;-70
2023/11/23 00:14:38;;;;;;;1.30;1.20;;;;;;;9.26;77.45;93726.31;513593;28;2010;-70
2023/11/23 00:14:54;;;;;;;1.30;1.20;;;;;;;9.27;77.22;93727.06;511921;28;4010;-70
2023/11/23 00:15:09;;;;;;;1.10;1.00;;;;;;;9.26;77.52;93720.81;514005;28;1550;-69
2023/11/23 00:15:25;;;;;;;0.90;0.90;;;;;;;9.27;77.46;93721.53;513053;28;1902;-69
2023/11/23 00:15:40;;;;;;;1.15;1.08;;;;;;;9.26;77.59;93731.81;512544;28;1763;-69
2023/11/23 00:15:56;;;;;;;1.20;1.10;;;;;;;9.27;77.56;93729.81;512786;28;3351;-69
2023/11/23 00:16:12;;;;;;;1.40;1.30;;;;;;;9.26;77.64;93729.06;513325;28;1045;-69
2023/11/23 00:16:27;;;;;;;1.60;1.50;;;;;;;9.26;77.38;93728.31;510605;28;2014;-70
2023/11/23 00:16:43;;;;;;;1.48;1.38;;;;;;;9.27;77.74;93733.28;513093;28;1942;-70
2023/11/23 00:16:58;;;;;;;1.50;1.40;;;;;;;9.26;77.45;93731.81;511577;28;3176;-69
2023/11/23 00:17:15;;;;;;;1.50;1.40;;;;;;;9.16;77.70;93712.22;513413;28;2072;-69
2023/11/23 00:17:30;;;;;;;1.30;1.20;;;;;;;9.27;77.41;93727.78;513309;28;1897;-69
2023/11/23 00:17:47;;;;;;;1.40;1.30;;;;;;;9.25;77.52;93724.81;512107;28;1610;-69
2023/11/23 00:18:03;;;;;;;1.30;1.20;;;;;;;9.24;77.39;93728.84;512848;28;2017;-69
2023/11/23 00:18:18;;;;;;;1.35;1.02;;;;;;;9.25;77.72;93738.59;512655;28;1863;-69
2023/11/23 00:18:34;;;;;;;1.77;1.13;;;;;;;9.24;77.37;93730.88;513911;28;1586;-70
2023/11/23 00:18:49;;;;;;;1.33;1.10;;;;;;;9.25;77.37;93730.31;513073;28;1720;-69
2023/11/23 00:19:05;;;;;;;1.20;1.08;;;;;;;9.26;77.53;93731.06;511497;28;4341;-69
2023/11/23 00:19:20;;;;;;;1.30;1.20;;;;;;;9.26;77.35;93731.06;511476;28;1899;-69
2023/11/23 00:19:36;;;;;;;1.33;1.23;;;;;;;9.28;77.78;93729.28;512839;28;1911;-70
2023/11/23 00:19:51;;;;;;;1.50;1.40;;;;;;;9.27;77.33;93733.28;512744;28;1693;-70
2023/11/23 00:20:09;;;;;;;1.50;1.38;;;;;;;9.30;77.39;93732.22;511955;28;2098;-70
2023/11/23 00:20:24;;;;;;;1.50;1.40;;;;;;;9.32;77.31;93734.44;511433;28;2824;-69
2023/11/23 00:20:40;;;;;;;1.52;1.42;;;;;;;9.32;77.56;93732.44;513124;28;1625;-70
2023/11/23 00:20:57;;;;;;;1.45;1.35;;;;;;;9.33;77.31;93733.19;511497;28;1945;-69
2023/11/23 00:21:12;;;;;;;1.60;1.50;;;;;;;9.33;77.59;93738.69;512118;28;2072;-70
2023/11/23 00:21:28;;;;;;;1.30;1.20;;;;;;;9.33;77.67;93730.44;512505;28;3159;-70
2023/11/23 00:21:43;;;;;;;1.13;1.03;;;;;;;9.33;77.74;93733.94;514132;28;2009;-70
2023/11/23 00:21:59;;;;;;;1.13;1.02;;;;;;;9.28;77.84;93734.03;511491;28;2846;-69
2023/11/23 00:22:15;;;;;;;1.20;1.10;;;;;;;9.27;77.42;93727.78;513613;28;1517;-69
2023/11/23 00:22:32;;;;;;;1.40;1.30;;;;;;;9.26;77.98;93733.81;512706;28;2360;-69
2023/11/23 00:22:47;;;;;;;1.70;1.60;;;;;;;9.21;78.10;93734.69;512651;28;3166;-69
2023/11/23 00:23:03;;;;;;;1.57;1.47;;;;;;;9.18;77.93;93731.72;513063;28;1617;-69
2023/11/23 00:23:19;;;;;;;1.40;1.30;;;;;;;9.14;78.08;93731.31;513283;28;1689;-69
2023/11/23 00:23:34;;;;;;;1.27;1.17;;;;;;;9.18;78.15;93735.75;513437;28;1828;-69
2023/11/23 00:23:50;;;;;;;1.00;0.90;;;;;;;9.18;78.27;93734.47;512722;28;3097;-69
2023/11/23 00:24:05;;;;;;;1.13;1.07;;;;;;;9.20;77.95;93733.97;512328;28;1788;-69
2023/11/23 00:24:21;;;;;;;1.33;1.23;;;;;;;9.21;77.88;93735.41;513668;28;2029;-69
2023/11/23 00:24:36;;;;;;;1.50;1.40;;;;;;;9.22;78.12;93731.41;513006;28;1160;-69
2023/11/23 00:24:54;;;;;;;1.75;1.38;;;;;;;9.25;77.93;93732.38;511094;28;2134;-69
2023/11/23 00:25:14;;;;;;;1.42;1.30;;;;;;;9.27;78.00;93740.84;513309;28;1586;-69
2023/11/23 00:25:29;;;;;;;1.40;1.30;;;;;;;9.27;77.84;93732.56;511950;28;2495;-69
2023/11/23 00:25:46;;;;;;;1.45;1.30;;;;;;;9.27;77.87;93736.03;513674;28;1934;-69
2023/11/23 00:26:03;;;;;;;1.50;1.40;;;;;;;9.28;77.89;93729.28;512482;28;1850;-70
2023/11/23 00:26:19;;;;;;;1.60;1.50;;;;;;;9.30;77.79;93732.22;513100;28;1749;-70
2023/11/23 00:26:34;;;;;;;1.55;1.45;;;;;;;9.32;77.93;93735.19;510812;28;3189;-70
2023/11/23 00:26:51;;;;;;;1.60;1.50;;;;;;;9.29;77.98;93733.50;512091;28;1846;-70
2023/11/23 00:27:06;;;;;;;1.65;1.50;;;;;;;9.29;78.06;93733.50;511926;28;3071;-69
2023/11/23 00:27:22;;;;;;;1.60;1.45;;;;;;;9.31;78.15;93739.22;513938;28;2068;-69
2023/11/23 00:27:38;;;;;;;1.60;1.50;;;;;;;9.32;77.88;93735.19;513942;28;1588;-69
2023/11/23 00:27:53;;;;;;;3.25;1.48;;;;;;;9.32;78.01;93739.94;513341;28;1881;-69
2023/11/23 00:28:09;;;;;;;2.93;1.30;;;;;;;9.32;77.93;93735.19;512351;28;1585;-69
2023/11/23 00:28:24;;;;;;;1.40;1.30;;;;;;;9.31;77.89;93728.22;513670;28;1646;-69
2023/11/23 00:28:40;;;;;;;1.60;1.50;;;;;;;9.30;78.15;93737.75;512835;28;1653;-69
2023/11/23 00:28:55;;;;;;;1.65;1.55;;;;;;;9.28;78.34;93734.78;511939;28;2641;-69
2023/11/23 00:29:10;;;;;;;1.63;1.50;;;;;;;9.26;78.27;93733.81;512765;28;1574;-69
2023/11/23 00:29:26;;;;;;;1.85;1.33;;;;;;;9.31;77.97;93738.50;512433;28;2140;-69
2023/11/23 00:29:42;;;;;;;1.60;1.50;;;;;;;9.31;77.96;93733.72;511124;28;1844;-70
2023/11/23 00:29:57;;;;;;;1.65;1.55;;;;;;;9.32;78.00;93728.94;513742;28;2040;-69
2023/11/23 00:30:13;;;;;;;1.50;1.40;;;;;;;9.32;78.24;93731.69;513030;28;1755;-69
2023/11/23 00:30:28;;;;;;;1.38;1.23;;;;;;;9.33;78.11;93741.44;512209;28;3315;-69
2023/11/23 00:30:44;;;;;;;1.55;1.30;;;;;;;9.32;78.21;93734.44;512813;28;1550;-69
2023/11/23 00:30:59;;;;;;;1.33;1.23;;;;;;;9.33;77.93;93739.44;512498;28;3320;-69
2023/11/23 00:31:15;;;;;;;1.30;1.20;;;;;;;9.33;78.25;93735.94;510462;28;1874;-69
2023/11/23 00:31:30;;;;;;;1.27;1.17;;;;;;;9.34;77.87;93742.91;512392;28;1953;-69
2023/11/23 00:31:46;;;;;;;1.30;1.20;;;;;;;9.34;78.13;93737.41;511208;28;3596;-69
2023/11/23 00:32:01;;;;;;;1.38;1.27;;;;;;;9.36;78.22;93740.38;513411;28;1606;-69
2023/11/23 00:32:18;;;;;;;1.40;1.30;;;;;;;9.36;77.74;93741.13;512914;28;1952;-69
2023/11/23 00:32:34;;;;;;;1.42;1.33;;;;;;;9.37;77.77;93737.09;512557;28;2309;-69
2023/11/23 00:32:49;;;;;;;1.70;1.57;;;;;;;9.37;77.92;93741.84;512956;28;3516;-69
2023/11/23 00:33:05;;;;;;;1.70;1.60;;;;;;;9.38;78.14;93743.31;514083;28;1999;-69
2023/11/23 00:33:20;;;;;;;1.75;1.50;;;;;;;9.38;77.93;93746.81;512740;28;2484;-69
2023/11/23 00:33:36;;;;;;;1.93;1.43;;;;;;;9.39;78.07;93742.06;511147;28;3190;-69
2023/11/23 00:33:51;;;;;;;1.65;1.30;;;;;;;9.39;77.81;93739.31;513255;28;1582;-69
2023/11/23 00:34:06;;;;;;;1.60;1.30;;;;;;;9.40;77.78;93743.56;513877;28;2259;-69
2023/11/23 00:34:22;;;;;;;1.50;1.30;;;;;;;9.39;77.86;93742.06;512007;28;2396;-69
2023/11/23 00:34:38;;;;;;;1.50;1.23;;;;;;;9.38;77.86;93748.84;513726;28;1861;-69
2023/11/23 00:34:53;;;;;;;1.90;1.30;;;;;;;9.38;77.84;93743.31;513433;28;2080;-69
2023/11/23 00:35:09;;;;;;;1.67;1.30;;;;;;;9.37;78.17;93745.38;513140;28;1666;-69
2023/11/23 00:35:24;;;;;;;1.58;1.45;;;;;;;9.39;77.73;93742.06;513410;28;3173;-69
2023/11/23 00:35:41;;;;;;;1.60;1.50;;;;;;;9.16;77.95;93709.47;511368;28;3332;-69
2023/11/23 00:35:56;;;;;;;2.10;1.67;;;;;;;9.39;77.96;93742.06;512505;28;1069;-70
2023/11/23 00:36:13;;;;;;;3.20;1.93;;;;;;;9.39;77.89;93742.81;513349;28;1954;-70
2023/11/23 00:36:30;;;;;;;2.35;1.73;;;;;;;9.39;77.92;93742.81;511413;28;1716;-69
2023/11/23 00:36:45;;;;;;;1.85;1.67;;;;;;;9.40;77.59;93746.31;512449;28;2068;-69
2023/11/23 00:37:00;;;;;;;2.70;2.10;;;;;;;9.39;77.68;93739.31;513370;28;1997;-69
2023/11/23 00:37:16;;;;;;;3.00;2.33;;;;;;;9.38;77.94;93744.06;513233;28;2484;-69
2023/11/23 00:37:32;;;;;;;2.60;2.33;;;;;;;9.38;77.76;93741.31;512910;28;1669;-70
2023/11/23 00:37:48;;;;;;;2.40;2.13;;;;;;;9.39;78.08;93740.06;511767;28;3008;-70
2023/11/23 00:38:08;;;;;;;2.85;2.55;;;;;;;9.38;77.80;93738.56;512775;28;1877;-69
2023/11/23 00:38:23;;;;;;;3.10;2.80;;;;;;;9.40;77.93;93751.81;512143;28;1871;-69
2023/11/23 00:38:42;;;;;;;3.23;2.93;;;;;;;9.13;78.09;93707.06;512944;28;1775;-69
2023/11/23 00:38:58;;;;;;;4.30;3.80;;;;;;;9.39;77.98;93739.31;513681;28;1672;-69
2023/11/23 00:39:13;;;;;;;4.32;3.92;;;;;;;9.39;78.05;93739.31;513550;28;1841;-69
2023/11/23 00:39:29;;;;;;;4.00;3.60;;;;;;;9.38;78.23;93746.81;510939;28;3217;-69
2023/11/23 00:39:44;;;;;;;4.13;3.72;;;;;;;9.38;78.17;93741.31;511862;28;2053;-69
2023/11/23 00:40:00;;;;;;;3.80;3.50;;;;;;;9.38;78.10;93741.31;511430;28;2084;-69
2023/11/23 00:40:15;;;;;;;4.00;3.65;;;;;;;9.38;78.41;93743.31;513320;28;1751;-69
2023/11/23 00:40:31;;;;;;;4.83;4.40;;;;;;;9.37;78.42;93741.84;512558;28;2160;-69
2023/11/23 00:40:46;;;;;;;5.00;4.50;;;;;;;9.36;78.13;93743.88;510694;28;2353;-69
2023/11/23 00:41:02;;;;;;;4.93;4.13;;;;;;;9.36;78.45;93740.38;510479;28;3176;-69
2023/11/23 00:41:17;;;;;;;4.22;3.83;;;;;;;9.36;78.21;93740.38;512814;28;950;-69
2023/11/23 00:41:33;;;;;;;4.73;3.67;;;;;;;9.36;78.60;93741.13;511990;28;1902;-69
2023/11/23 00:41:49;;;;;;;5.32;3.90;;;;;;;9.31;78.87;93744.75;511533;28;2999;-69
2023/11/23 00:42:04;;;;;;;4.80;4.00;;;;;;;9.30;79.00;93739.75;511421;28;2225;-69
2023/11/23 00:42:20;;;;;;;4.70;3.83;;;;;;;9.31;78.90;93738.50;513210;28;1642;-69
2023/11/23 00:42:35;;;;;;;4.53;3.97;;;;;;;9.33;78.75;93741.44;510022;28;3170;-69
2023/11/23 00:42:51;;;;;;;5.63;4.37;;;;;;;9.32;78.73;93740.69;513343;28;1771;-69
2023/11/23 00:43:06;;;;;;;6.33;4.47;;;;;;;9.33;78.60;93744.19;512602;28;1614;-68
2023/11/23 00:43:22;;;;;;;5.43;4.13;;;;;;;9.33;78.71;93746.97;512792;28;2020;-69
2023/11/23 00:43:37;;;;;;;5.20;4.00;;;;;;;9.34;78.71;93748.44;512863;28;1519;-69
2023/11/23 00:43:53;;;;;;;5.38;4.05;;;;;;;9.33;78.73;93749.72;513889;28;1942;-69
2023/11/23 00:44:08;;;;;;;4.43;3.63;;;;;;;9.31;78.68;93747.50;513171;28;1641;-69
2023/11/23 00:44:24;;;;;;;3.58;3.25;;;;;;;9.31;78.60;93750.25;512505;28;2956;-69
2023/11/23 00:44:39;;;;;;;3.72;3.38;;;;;;;9.31;78.64;93752.25;513369;28;1914;-69
2023/11/23 00:44:56;;;;;;;3.40;3.10;;;;;;;9.31;78.89;93753.00;510798;28;2600;-69
2023/11/23 00:45:14;;;;;;;2.97;2.72;;;;;;;9.32;78.85;93756.47;512578;28;2453;-69
2023/11/23 00:45:30;;;;;;;3.35;2.90;;;;;;;9.33;78.73;93755.22;512596;28;1984;-69
2023/11/23 00:45:45;;;;;;;3.93;3.30;;;;;;;9.27;78.91;93762.88;512866;28;3190;-69
2023/11/23 00:46:03;;;;;;;3.47;3.17;;;;;;;9.27;78.67;93754.59;511841;28;3259;-69
2023/11/23 00:46:18;;;;;;;2.78;2.50;;;;;;;9.26;78.82;93758.63;512970;28;1869;-69
2023/11/23 00:46:37;;;;;;;2.30;2.10;;;;;;;9.27;78.68;93754.59;512251;28;3633;-69
2023/11/23 00:46:52;;;;;;;1.75;1.65;;;;;;;9.18;79.11;93759.25;511531;28;3368;-69
2023/11/23 00:47:08;;;;;;;1.50;1.40;;;;;;;9.06;78.94;93733.22;512155;28;2001;-69
2023/11/23 00:47:23;;;;;;;1.40;1.20;;;;;;;9.14;79.21;93764.34;512718;28;1673;-69
2023/11/23 00:47:39;;;;;;;1.58;1.20;;;;;;;9.16;79.34;93753.53;512874;28;1845;-69
2023/11/23 00:47:54;;;;;;;1.10;1.00;;;;;;;9.18;79.42;93757.78;513484;28;2786;-69
2023/11/23 00:48:09;;;;;;;1.58;1.17;;;;;;;9.18;79.26;93758.53;513224;28;3365;-69
2023/11/23 00:48:27;;;;;;;2.07;1.70;;;;;;;9.17;79.10;93759.81;511971;28;3383;-69
2023/11/23 00:48:42;;;;;;;2.15;1.95;;;;;;;9.15;79.33;93757.59;513239;28;1567;-68
2023/11/23 00:48:59;;;;;;;2.15;1.90;;;;;;;9.12;79.20;93755.88;513332;28;946;-70
2023/11/23 00:49:15;;;;;;;1.95;1.77;;;;;;;9.16;78.99;93761.81;512172;28;2052;-69
2023/11/23 00:49:31;;;;;;;1.60;1.50;;;;;;;9.16;79.23;93750.03;512452;28;2385;-69
2023/11/23 00:49:47;;;;;;;1.37;1.27;;;;;;;9.18;78.95;93757.78;511035;28;2449;-69
2023/11/23 00:50:04;;;;;;;1.30;1.20;;;;;;;9.09;78.96;93750.72;511823;28;974;-69
2023/11/23 00:50:19;;;;;;;1.27;1.17;;;;;;;9.13;79.38;93764.91;514002;28;1664;-69
2023/11/23 00:50:35;;;;;;;1.10;1.00;;;;;;;9.12;79.37;93757.91;512590;28;2145;-69
2023/11/23 00:50:50;;;;;;;1.23;1.13;;;;;;;9.13;79.43;93757.38;511588;28;1868;-69
2023/11/23 00:51:06;;;;;;;1.47;1.37;;;;;;;9.13;79.53;93757.38;511200;28;2087;-68
2023/11/23 00:51:21;;;;;;;1.98;1.60;;;;;;;9.13;79.20;93759.38;513907;28;1922;-69
2023/11/23 00:51:37;;;;;;;1.88;1.63;;;;;;;9.12;79.55;93753.13;513861;28;1826;-69
2023/11/23 00:51:52;;;;;;;3.03;1.80;;;;;;;9.12;79.61;93750.38;513212;28;2977;-69
2023/11/23 00:52:08;;;;;;;4.75;2.22;;;;;;;9.12;79.31;93755.88;511942;28;1988;-69
2023/11/23 00:52:23;;;;;;;4.00;2.20;;;;;;;9.04;79.54;93744.03;514092;28;2148;-69
2023/11/23 00:52:39;;;;;;;2.28;1.77;;;;;;;9.12;79.65;93758.63;512895;28;2079;-69
2023/11/23 00:52:55;;;;;;;2.00;1.60;;;;;;;9.13;79.68;93751.88;513385;28;2096;-69
2023/11/23 00:53:10;;;;;;;2.08;1.58;;;;;;;9.11;79.39;93756.44;512812;28;1687;-69
2023/11/23 00:53:25;;;;;;;1.60;1.33;;;;;;;9.09;79.91;93759.72;511417;28;3115;-69
2023/11/23 00:53:41;;;;;;;1.17;1.08;;;;;;;9.09;79.54;93754.22;512753;28;1631;-69
2023/11/23 00:53:56;;;;;;;1.10;1.00;;;;;;;9.10;79.44;93755.69;513518;28;1775;-69
2023/11/23 00:54:12;;;;;;;1.17;1.08;;;;;;;9.07;80.04;93753.97;513498;28;2039;-69
2023/11/23 00:54:27;;;;;;;1.30;1.20;;;;;;;8.91;79.66;93732.28;511414;28;3218;-69
2023/11/23 00:54:43;;;;;;;1.50;1.40;;;;;;;9.07;79.75;93753.97;511078;28;1837;-69
2023/11/23 00:54:59;;;;;;;1.70;1.60;;;;;;;9.06;80.09;93755.25;512186;28;2964;-69
2023/11/23 00:55:14;;;;;;;1.40;1.30;;;;;;;9.06;80.08;93752.50;512064;28;1564;-69
2023/11/23 00:55:30;;;;;;;1.23;1.10;;;;;;;9.07;79.80;93753.97;512601;28;3173;-69
2023/11/23 00:55:45;;;;;;;1.52;1.42;;;;;;;9.07;79.96;93756.72;514266;28;2028;-68
2023/11/23 00:56:01;;;;;;;1.57;1.47;;;;;;;9.05;79.99;93753.78;512554;28;2573;-69
2023/11/23 00:56:17;;;;;;;1.35;1.20;;;;;;;9.07;79.87;93756.00;513506;28;1893;-69
2023/11/23 00:56:32;;;;;;;1.55;1.27;;;;;;;9.07;80.01;93756.00;511937;28;3156;-69
2023/11/23 00:56:48;;;;;;;2.23;1.40;;;;;;;9.07;80.10;93751.22;512095;28;1744;-69
2023/11/23 00:57:05;;;;;;;1.90;1.30;;;;;;;9.03;80.01;93752.84;513414;28;2016;-69
2023/11/23 00:57:21;;;;;;;2.20;1.43;;;;;;;9.04;80.18;93752.31;512958;28;1611;-69
2023/11/23 00:57:38;;;;;;;2.87;1.90;;;;;;;9.04;80.01;93749.56;513463;28;1570;-69
2023/11/23 00:57:53;;;;;;;3.80;2.55;;;;;;;9.03;79.98;93747.34;513483;28;1914;-69
2023/11/23 00:58:09;;;;;;;2.87;2.03;;;;;;;9.03;80.14;93753.56;513825;28;1598;-69
2023/11/23 00:58:24;;;;;;;1.58;1.13;;;;;;;9.00;80.15;93751.88;512657;28;1832;-69
2023/11/23 00:58:40;;;;;;;1.10;0.90;;;;;;;8.96;79.85;93756.97;513147;28;3276;-69
2023/11/23 00:58:55;;;;;;;1.77;1.35;;;;;;;8.96;80.26;93756.97;512690;28;3217;-69
2023/11/23 00:59:10;;;;;;;2.07;1.60;;;;;;;8.98;80.23;93750.94;512758;28;1555;-69
2023/11/23 00:59:26;;;;;;;1.95;1.42;;;;;;;8.97;80.41;93763.94;510383;28;1847;-69
2023/11/23 00:59:41;;;;;;;1.60;1.40;;;;;;;8.92;80.44;93755.81;512514;28;3261;-69
2023/11/23 00:59:59;;;;;;;1.40;1.30;;;;;;;8.92;80.66;93756.53;511702;28;2474;-69
2023/11/23 01:00:18;;;;;;;2.17;1.40;;;;;;;8.94;80.72;93759.50;513485;28;1726;-69
2023/11/23 01:00:33;;;;;;;1.40;1.10;;;;;;;8.94;80.80;93754.00;511305;28;1922;-70
2023/11/23 01:00:49;;;;;;;1.33;1.20;;;;;;;8.96;80.61;93764.50;511326;28;3207;-69
2023/11/23 01:01:04;;;;;;;2.20;1.98;;;;;;;8.96;80.52;93754.22;511916;28;1979;-71
2023/11/23 01:01:20;;;;;;;2.43;2.23;;;;;;;8.95;80.66;93755.47;510961;28;2338;-69
2023/11/23 01:01:35;;;;;;;2.42;2.05;;;;;;;8.93;80.58;93752.53;511787;28;3111;-70
2023/11/23 01:01:51;;;;;;;2.37;2.00;;;;;;;8.92;80.68;93756.53;512125;28;4039;-69
2023/11/23 01:02:06;;;;;;;2.03;1.85;;;;;;;8.92;80.44;93758.56;511230;28;3017;-70
2023/11/23 01:02:21;;;;;;;1.77;1.60;;;;;;;8.90;80.76;93758.34;512284;28;1563;-70
2023/11/23 01:02:38;;;;;;;1.87;1.60;;;;;;;8.90;80.37;93753.56;513102;28;1644;-70
2023/11/23 01:02:53;;;;;;;1.60;1.50;;;;;;;8.90;80.45;93753.56;512794;28;1080;-70
2023/11/23 01:03:09;;;;;;;1.50;1.40;;;;;;;8.89;80.28;93765.88;513743;28;1759;-70
2023/11/23 01:03:24;;;;;;;1.27;1.17;;;;;;;8.91;80.57;93762.59;513607;28;1586;-70
2023/11/23 01:03:40;;;;;;;1.10;0.90;;;;;;;8.90;80.66;93764.59;510976;28;2973;-70
2023/11/23 01:03:55;;;;;;;1.23;0.95;;;;;;;8.74;80.61;93738.13;512958;28;3295;-70
2023/11/23 01:04:11;;;;;;;2.50;1.17;;;;;;;8.91;80.42;93751.56;511673;28;3588;-70
2023/11/23 01:04:27;;;;;;;3.17;1.33;;;;;;;8.90;80.50;93761.84;511874;28;1615;-70
2023/11/23 01:04:43;;;;;;;1.52;1.20;;;;;;;8.90;80.71;93753.56;508997;28;1915;-70
2023/11/23 01:04:58;;;;;;;0.90;0.90;;;;;;;8.75;80.66;93727.88;508617;28;3311;-70
2023/11/23 01:05:15;;;;;;;1.37;1.27;;;;;;;8.90;80.76;93761.84;509728;28;1916;-70
2023/11/23 01:05:30;;;;;;;1.83;1.73;;;;;;;8.91;80.57;93762.59;507980;28;2354;-70
2023/11/23 01:05:46;;;;;;;2.43;2.03;;;;;;;8.92;80.64;93764.06;510986;28;3293;-70
2023/11/23 01:06:01;;;;;;;2.35;1.88;;;;;;;8.89;80.42;93757.63;510794;28;3047;-70
2023/11/23 01:06:17;;;;;;;2.00;1.70;;;;;;;8.88;80.60;93753.38;513304;28;1991;-70
2023/11/23 01:06:33;;;;;;;1.87;1.60;;;;;;;8.89;80.67;93756.88;513913;28;1980;-70
2023/11/23 01:06:49;;;;;;;2.05;1.60;;;;;;;8.86;80.86;93757.91;512721;28;1975;-70
2023/11/23 01:07:04;;;;;;;2.20;1.50;;;;;;;8.84;81.06;93752.19;513197;28;2230;-70
2023/11/23 01:07:20;;;;;;;1.58;1.40;;;;;;;8.84;80.88;93755.69;513307;28;3060;-70
2023/11/23 01:07:35;;;;;;;1.63;1.53;;;;;;;8.84;81.00;93754.94;513540;28;4010;-70
2023/11/23 01:07:51;;;;;;;1.50;1.40;;;;;;;8.86;80.96;93755.16;512130;28;1792;-70
2023/11/23 01:08:06;;;;;;;1.30;1.20;;;;;;;8.87;80.90;93756.66;512856;28;2037;-70
2023/11/23 01:08:21;;;;;;;1.52;1.42;;;;;;;8.88;80.94;93755.41;513581;28;1618;-70
2023/11/23 01:08:37;;;;;;;1.67;1.57;;;;;;;8.75;81.08;93738.88;512196;28;1633;-70
2023/11/23 01:08:52;;;;;;;1.40;1.30;;;;;;;8.85;81.08;93751.69;513266;28;3164;-69
2023/11/23 01:09:08;;;;;;;1.40;1.30;;;;;;;8.85;81.14;93757.19;513259;28;1735;-70
2023/11/23 01:09:24;;;;;;;1.38;1.27;;;;;;;8.87;81.36;93760.16;513412;28;1877;-71
2023/11/23 01:09:39;;;;;;;1.40;1.30;;;;;;;8.87;81.14;93760.16;512435;28;1666;-70
2023/11/23 01:09:55;;;;;;;1.40;1.30;;;;;;;8.88;80.98;93758.88;510169;28;3479;-70
2023/11/23 01:10:10;;;;;;;1.90;1.50;;;;;;;8.90;81.22;93761.13;512638;28;1684;-70
2023/11/23 01:10:26;;;;;;;2.20;1.83;;;;;;;8.90;81.08;93761.84;512931;28;3215;-70
2023/11/23 01:10:42;;;;;;;1.85;1.75;;;;;;;8.90;81.39;93756.31;514146;28;1933;-70
2023/11/23 01:10:59;;;;;;;1.50;1.40;;;;;;;8.91;81.37;93757.81;512127;28;3488;-70
2023/11/23 01:11:15;;;;;;;1.60;1.50;;;;;;;8.92;81.15;93759.28;514210;28;1144;-69
2023/11/23 01:11:30;;;;;;;1.43;1.30;;;;;;;8.91;81.28;93757.81;512946;28;1646;-70
2023/11/23 01:11:46;;;;;;;1.40;1.30;;;;;;;8.92;81.09;93759.28;511972;28;3100;-70
2023/11/23 01:12:02;;;;;;;1.50;1.40;;;;;;;8.92;81.01;93761.31;513198;28;1676;-70
2023/11/23 01:12:17;;;;;;;1.50;1.40;;;;;;;8.92;81.30;93759.28;512784;28;2014;-70
2023/11/23 01:12:33;;;;;;;1.70;1.40;;;;;;;8.92;81.28;93761.31;513915;28;1945;-70
2023/11/23 01:12:49;;;;;;;1.48;1.20;;;;;;;8.92;81.40;93761.31;512116;28;2686;-70
2023/11/23 01:13:06;;;;;;;1.20;1.10;;;;;;;8.87;81.72;93765.66;512916;28;1562;-70
2023/11/23 01:13:21;;;;;;;1.33;1.23;;;;;;;8.89;81.54;93759.63;512210;28;3491;-70
2023/11/23 01:13:38;;;;;;;1.27;1.17;;;;;;;8.89;81.65;93760.38;512527;28;1555;-69
2023/11/23 01:13:54;;;;;;;1.48;1.38;;;;;;;8.90;81.73;93767.34;512893;28;3106;-70
2023/11/23 01:14:09;;;;;;;1.77;1.67;;;;;;;8.92;81.43;93766.84;510129;28;2268;-70
2023/11/23 01:14:25;;;;;;;1.77;1.63;;;;;;;8.92;81.49;93761.31;512183;28;1760;-70
2023/11/23 01:14:40;;;;;;;1.70;1.60;;;;;;;8.89;81.39;93754.09;513279;28;2032;-70
2023/11/23 01:14:56;;;;;;;1.88;1.77;;;;;;;8.93;81.38;93760.03;512896;28;1968;-70
2023/11/23 01:15:12;;;;;;;2.10;1.90;;;;;;;8.93;81.67;93765.53;513446;28;1543;-70
2023/11/23 01:15:27;;;;;;;2.15;1.92;;;;;;;8.93;81.67;93766.28;512695;28;1910;-70
2023/11/23 01:15:43;;;;;;;1.92;1.77;;;;;;;8.95;81.46;93765.75;512911;28;2162;-70
2023/11/23 01:15:58;;;;;;;1.83;1.70;;;;;;;8.96;81.45;93765.25;512353;28;3239;-69
2023/11/23 01:16:14;;;;;;;2.90;2.22;;;;;;;8.97;81.31;93763.94;513681;28;1053;-70
2023/11/23 01:16:29;;;;;;;3.60;2.43;;;;;;;8.99;81.56;93766.91;513536;28;2087;-69
2023/11/23 01:16:45;;;;;;;2.83;2.40;;;;;;;9.00;81.19;93767.66;512377;28;1523;-70
2023/11/23 01:17:01;;;;;;;2.70;2.50;;;;;;;8.95;81.33;93765.75;513337;28;2375;-69